sensor_id;sensor_type;location;lat;lon;timestamp;P1;durP1;ratioP1;P2;durP2;ratioP2
20073;SDS011;10197;54.282;10.078;2023-02-18T00:01:00;31.10;;;6.30;;
20073;SDS011;10197;54.282;10.078;2023-02-18T00:03:29;33.25;;;6.50;;
20073;SDS011;10197;54.282;10.078;2023-02-18T00:05:56;33.42;;;6.57;;
20073;SDS011;10197;54.282;10.078;2023-02-18T00:08:23;25.73;;;6.15;;
20073;SDS011;10197;54.282;10.078;2023-02-18T00:10:49;28.55;;;6.38;;
20073;SDS011;10197;54.282;10.078;2023-02-18T00:13:18;28.55;;;6.53;;
20073;SDS011;10197;54.282;10.078;2023-02-18T00:15:45;28.25;;;5.45;;
20073;SDS011;10197;54.282;10.078;2023-02-18T00:18:12;26.85;;;5.63;;
20073;SDS011;10197;54.282;10.078;2023-02-18T00:20:40;29.65;;;4.80;;
20073;SDS011;10197;54.282;10.078;2023-02-18T00:23:07;30.77;;;6.78;;
20073;SDS011;10197;54.282;10.078;2023-02-18T00:25:34;32.78;;;6.20;;
20073;SDS011;10197;54.282;10.078;2023-02-18T00:28:01;28.90;;;5.93;;
20073;SDS011;10197;54.282;10.078;2023-02-18T00:30:29;28.77;;;6.53;;
20073;SDS011;10197;54.282;10.078;2023-02-18T00:32:56;28.48;;;6.45;;
20073;SDS011;10197;54.282;10.078;2023-02-18T00:35:23;29.77;;;6.25;;
20073;SDS011;10197;54.282;10.078;2023-02-18T00:37:50;31.85;;;7.00;;
20073;SDS011;10197;54.282;10.078;2023-02-18T00:40:18;29.52;;;5.53;;
20073;SDS011;10197;54.282;10.078;2023-02-18T00:42:45;23.50;;;6.55;;
20073;SDS011;10197;54.282;10.078;2023-02-18T00:45:13;29.05;;;6.45;;
20073;SDS011;10197;54.282;10.078;2023-02-18T00:47:41;35.75;;;7.20;;
20073;SDS011;10197;54.282;10.078;2023-02-18T00:50:08;30.75;;;6.47;;
20073;SDS011;10197;54.282;10.078;2023-02-18T00:52:35;27.33;;;5.80;;
20073;SDS011;10197;54.282;10.078;2023-02-18T00:55:02;45.25;;;6.53;;
20073;SDS011;10197;54.282;10.078;2023-02-18T00:57:31;30.77;;;6.25;;
20073;SDS011;10197;54.282;10.078;2023-02-18T00:59:58;27.67;;;6.13;;
20073;SDS011;10197;54.282;10.078;2023-02-18T01:02:25;20.80;;;5.70;;
20073;SDS011;10197;54.282;10.078;2023-02-18T01:04:53;26.15;;;5.80;;
20073;SDS011;10197;54.282;10.078;2023-02-18T01:07:20;31.75;;;6.28;;
20073;SDS011;10197;54.282;10.078;2023-02-18T01:09:47;37.80;;;7.55;;
20073;SDS011;10197;54.282;10.078;2023-02-18T01:12:14;30.35;;;5.70;;
20073;SDS011;10197;54.282;10.078;2023-02-18T01:14:41;28.25;;;6.30;;
20073;SDS011;10197;54.282;10.078;2023-02-18T01:17:09;26.60;;;5.38;;
20073;SDS011;10197;54.282;10.078;2023-02-18T01:19:38;25.45;;;5.32;;
20073;SDS011;10197;54.282;10.078;2023-02-18T01:22:07;29.58;;;5.88;;
20073;SDS011;10197;54.282;10.078;2023-02-18T01:24:33;32.30;;;6.15;;
20073;SDS011;10197;54.282;10.078;2023-02-18T01:27:02;23.70;;;5.40;;
20073;SDS011;10197;54.282;10.078;2023-02-18T01:29:30;27.33;;;6.55;;
20073;SDS011;10197;54.282;10.078;2023-02-18T01:31:56;29.88;;;6.30;;
20073;SDS011;10197;54.282;10.078;2023-02-18T01:34:23;37.50;;;6.90;;
20073;SDS011;10197;54.282;10.078;2023-02-18T01:36:50;29.48;;;5.40;;
20073;SDS011;10197;54.282;10.078;2023-02-18T01:39:18;24.08;;;4.57;;
20073;SDS011;10197;54.282;10.078;2023-02-18T01:41:45;23.52;;;5.93;;
20073;SDS011;10197;54.282;10.078;2023-02-18T01:44:13;29.50;;;5.18;;
20073;SDS011;10197;54.282;10.078;2023-02-18T01:46:44;25.77;;;5.63;;
20073;SDS011;10197;54.282;10.078;2023-02-18T01:49:12;29.60;;;4.95;;
20073;SDS011;10197;54.282;10.078;2023-02-18T01:51:42;26.92;;;4.80;;
20073;SDS011;10197;54.282;10.078;2023-02-18T01:54:12;32.83;;;5.45;;
20073;SDS011;10197;54.282;10.078;2023-02-18T01:56:44;24.95;;;5.07;;
20073;SDS011;10197;54.282;10.078;2023-02-18T01:59:15;25.48;;;4.93;;
20073;SDS011;10197;54.282;10.078;2023-02-18T02:01:44;20.65;;;4.97;;
20073;SDS011;10197;54.282;10.078;2023-02-18T02:04:11;27.02;;;5.38;;
20073;SDS011;10197;54.282;10.078;2023-02-18T02:06:39;28.25;;;5.10;;
20073;SDS011;10197;54.282;10.078;2023-02-18T02:09:08;23.25;;;4.65;;
20073;SDS011;10197;54.282;10.078;2023-02-18T02:14:48;30.63;;;5.25;;
20073;SDS011;10197;54.282;10.078;2023-02-18T02:17:27;25.90;;;4.85;;
20073;SDS011;10197;54.282;10.078;2023-02-18T02:26:19;20.42;;;4.22;;
20073;SDS011;10197;54.282;10.078;2023-02-18T02:32:23;20.15;;;4.72;;
20073;SDS011;10197;54.282;10.078;2023-02-18T02:35:09;30.95;;;5.22;;
20073;SDS011;10197;54.282;10.078;2023-02-18T02:37:40;25.10;;;5.10;;
20073;SDS011;10197;54.282;10.078;2023-02-18T02:40:14;19.23;;;4.38;;
20073;SDS011;10197;54.282;10.078;2023-02-18T02:42:49;21.65;;;4.95;;
20073;SDS011;10197;54.282;10.078;2023-02-18T02:45:28;24.30;;;4.80;;
20073;SDS011;10197;54.282;10.078;2023-02-18T02:48:03;31.70;;;5.55;;
20073;SDS011;10197;54.282;10.078;2023-02-18T02:50:37;23.67;;;5.28;;
20073;SDS011;10197;54.282;10.078;2023-02-18T02:53:10;29.13;;;5.18;;
20073;SDS011;10197;54.282;10.078;2023-02-18T02:55:40;26.50;;;7.38;;
20073;SDS011;10197;54.282;10.078;2023-02-18T02:58:08;20.42;;;5.03;;
20073;SDS011;10197;54.282;10.078;2023-02-18T03:00:42;25.48;;;5.15;;
20073;SDS011;10197;54.282;10.078;2023-02-18T03:03:37;28.50;;;4.97;;
20073;SDS011;10197;54.282;10.078;2023-02-18T03:06:26;24.90;;;4.35;;
20073;SDS011;10197;54.282;10.078;2023-02-18T03:09:01;30.60;;;6.97;;
20073;SDS011;10197;54.282;10.078;2023-02-18T03:11:39;28.73;;;6.07;;
20073;SDS011;10197;54.282;10.078;2023-02-18T03:14:09;35.13;;;5.45;;
20073;SDS011;10197;54.282;10.078;2023-02-18T03:16:42;31.35;;;5.75;;
20073;SDS011;10197;54.282;10.078;2023-02-18T03:19:13;23.92;;;5.75;;
20073;SDS011;10197;54.282;10.078;2023-02-18T03:21:47;31.05;;;5.65;;
20073;SDS011;10197;54.282;10.078;2023-02-18T03:24:19;31.83;;;6.90;;
20073;SDS011;10197;54.282;10.078;2023-02-18T03:26:49;29.30;;;5.57;;
20073;SDS011;10197;54.282;10.078;2023-02-18T03:29:18;35.70;;;5.25;;
20073;SDS011;10197;54.282;10.078;2023-02-18T03:31:48;31.15;;;5.97;;
20073;SDS011;10197;54.282;10.078;2023-02-18T03:34:19;31.90;;;5.57;;
20073;SDS011;10197;54.282;10.078;2023-02-18T03:36:50;28.08;;;5.00;;
20073;SDS011;10197;54.282;10.078;2023-02-18T03:39:18;31.08;;;5.57;;
20073;SDS011;10197;54.282;10.078;2023-02-18T03:41:46;27.27;;;6.15;;
20073;SDS011;10197;54.282;10.078;2023-02-18T03:44:13;28.65;;;5.82;;
20073;SDS011;10197;54.282;10.078;2023-02-18T03:46:40;36.75;;;5.97;;
20073;SDS011;10197;54.282;10.078;2023-02-18T03:49:08;30.17;;;5.25;;
20073;SDS011;10197;54.282;10.078;2023-02-18T03:51:36;38.00;;;5.75;;
20073;SDS011;10197;54.282;10.078;2023-02-18T03:54:04;33.40;;;5.65;;
20073;SDS011;10197;54.282;10.078;2023-02-18T03:56:32;35.97;;;6.15;;
20073;SDS011;10197;54.282;10.078;2023-02-18T03:58:59;31.63;;;5.93;;
20073;SDS011;10197;54.282;10.078;2023-02-18T04:01:26;27.25;;;5.22;;
20073;SDS011;10197;54.282;10.078;2023-02-18T04:03:53;26.15;;;6.25;;
20073;SDS011;10197;54.282;10.078;2023-02-18T04:06:20;29.92;;;5.78;;
20073;SDS011;10197;54.282;10.078;2023-02-18T04:08:47;23.25;;;4.57;;
20073;SDS011;10197;54.282;10.078;2023-02-18T04:11:16;30.70;;;5.43;;
20073;SDS011;10197;54.282;10.078;2023-02-18T04:13:43;31.95;;;5.75;;
20073;SDS011;10197;54.282;10.078;2023-02-18T04:16:10;19.80;;;4.55;;
20073;SDS011;10197;54.282;10.078;2023-02-18T04:18:37;26.85;;;5.20;;
20073;SDS011;10197;54.282;10.078;2023-02-18T04:21:04;32.88;;;5.90;;
20073;SDS011;10197;54.282;10.078;2023-02-18T04:23:31;25.98;;;4.70;;
20073;SDS011;10197;54.282;10.078;2023-02-18T04:25:58;24.10;;;4.75;;
20073;SDS011;10197;54.282;10.078;2023-02-18T04:28:26;26.75;;;4.93;;
20073;SDS011;10197;54.282;10.078;2023-02-18T04:30:53;26.83;;;4.55;;
20073;SDS011;10197;54.282;10.078;2023-02-18T04:33:20;29.63;;;6.03;;
20073;SDS011;10197;54.282;10.078;2023-02-18T04:35:47;32.22;;;5.88;;
20073;SDS011;10197;54.282;10.078;2023-02-18T04:38:14;29.42;;;6.30;;
20073;SDS011;10197;54.282;10.078;2023-02-18T04:40:41;24.90;;;4.85;;
20073;SDS011;10197;54.282;10.078;2023-02-18T04:43:08;23.38;;;4.82;;
20073;SDS011;10197;54.282;10.078;2023-02-18T04:45:36;25.67;;;4.47;;
20073;SDS011;10197;54.282;10.078;2023-02-18T04:48:03;30.80;;;4.82;;
20073;SDS011;10197;54.282;10.078;2023-02-18T04:50:30;21.35;;;3.90;;
20073;SDS011;10197;54.282;10.078;2023-02-18T04:52:57;23.10;;;4.25;;
20073;SDS011;10197;54.282;10.078;2023-02-18T04:55:24;20.02;;;4.10;;
20073;SDS011;10197;54.282;10.078;2023-02-18T04:57:51;17.50;;;4.10;;
20073;SDS011;10197;54.282;10.078;2023-02-18T05:00:19;21.50;;;4.18;;
20073;SDS011;10197;54.282;10.078;2023-02-18T05:02:47;15.73;;;3.55;;
20073;SDS011;10197;54.282;10.078;2023-02-18T05:05:15;23.48;;;3.83;;
20073;SDS011;10197;54.282;10.078;2023-02-18T05:07:42;17.17;;;4.13;;
20073;SDS011;10197;54.282;10.078;2023-02-18T05:10:09;20.80;;;3.97;;
20073;SDS011;10197;54.282;10.078;2023-02-18T05:12:37;16.55;;;4.25;;
20073;SDS011;10197;54.282;10.078;2023-02-18T05:15:04;19.00;;;3.92;;
20073;SDS011;10197;54.282;10.078;2023-02-18T05:17:32;23.33;;;4.93;;
20073;SDS011;10197;54.282;10.078;2023-02-18T05:20:00;20.50;;;3.75;;
20073;SDS011;10197;54.282;10.078;2023-02-18T05:22:27;17.67;;;4.03;;
20073;SDS011;10197;54.282;10.078;2023-02-18T05:24:54;12.45;;;3.05;;
20073;SDS011;10197;54.282;10.078;2023-02-18T05:27:21;19.13;;;3.38;;
20073;SDS011;10197;54.282;10.078;2023-02-18T05:29:48;11.80;;;2.85;;
20073;SDS011;10197;54.282;10.078;2023-02-18T05:32:14;20.55;;;3.47;;
20073;SDS011;10197;54.282;10.078;2023-02-18T05:34:41;8.52;;;2.78;;
20073;SDS011;10197;54.282;10.078;2023-02-18T05:37:10;12.10;;;3.10;;
20073;SDS011;10197;54.282;10.078;2023-02-18T05:39:37;14.48;;;2.58;;
20073;SDS011;10197;54.282;10.078;2023-02-18T05:42:04;7.57;;;2.60;;
20073;SDS011;10197;54.282;10.078;2023-02-18T05:44:31;9.80;;;3.05;;
20073;SDS011;10197;54.282;10.078;2023-02-18T05:46:59;13.48;;;3.28;;
20073;SDS011;10197;54.282;10.078;2023-02-18T05:49:27;15.65;;;3.28;;
20073;SDS011;10197;54.282;10.078;2023-02-18T05:51:55;8.35;;;2.42;;
20073;SDS011;10197;54.282;10.078;2023-02-18T05:54:23;14.15;;;3.38;;
20073;SDS011;10197;54.282;10.078;2023-02-18T05:56:50;18.20;;;4.25;;
20073;SDS011;10197;54.282;10.078;2023-02-18T05:59:18;16.67;;;3.40;;
20073;SDS011;10197;54.282;10.078;2023-02-18T06:01:46;14.98;;;3.35;;
20073;SDS011;10197;54.282;10.078;2023-02-18T06:04:13;13.38;;;3.65;;
20073;SDS011;10197;54.282;10.078;2023-02-18T06:06:40;12.02;;;3.35;;
20073;SDS011;10197;54.282;10.078;2023-02-18T06:09:08;12.35;;;2.90;;
20073;SDS011;10197;54.282;10.078;2023-02-18T06:11:36;13.95;;;3.08;;
20073;SDS011;10197;54.282;10.078;2023-02-18T06:14:03;11.60;;;3.10;;
20073;SDS011;10197;54.282;10.078;2023-02-18T06:16:31;14.15;;;3.30;;
20073;SDS011;10197;54.282;10.078;2023-02-18T06:18:58;10.65;;;2.90;;
20073;SDS011;10197;54.282;10.078;2023-02-18T06:21:25;15.02;;;3.38;;
20073;SDS011;10197;54.282;10.078;2023-02-18T06:23:52;10.85;;;3.20;;
20073;SDS011;10197;54.282;10.078;2023-02-18T06:26:19;10.35;;;3.17;;
20073;SDS011;10197;54.282;10.078;2023-02-18T06:28:48;10.10;;;2.83;;
20073;SDS011;10197;54.282;10.078;2023-02-18T06:31:15;12.57;;;2.70;;
20073;SDS011;10197;54.282;10.078;2023-02-18T06:33:42;11.88;;;2.65;;
20073;SDS011;10197;54.282;10.078;2023-02-18T06:36:09;11.98;;;2.47;;
20073;SDS011;10197;54.282;10.078;2023-02-18T06:38:37;11.80;;;2.60;;
20073;SDS011;10197;54.282;10.078;2023-02-18T06:41:04;12.80;;;2.55;;
20073;SDS011;10197;54.282;10.078;2023-02-18T06:43:32;9.32;;;2.33;;
20073;SDS011;10197;54.282;10.078;2023-02-18T06:46:04;8.77;;;2.65;;
20073;SDS011;10197;54.282;10.078;2023-02-18T06:48:36;9.32;;;2.85;;
20073;SDS011;10197;54.282;10.078;2023-02-18T06:51:03;7.88;;;1.95;;
20073;SDS011;10197;54.282;10.078;2023-02-18T06:53:30;8.38;;;2.80;;
20073;SDS011;10197;54.282;10.078;2023-02-18T06:55:58;4.85;;;2.10;;
20073;SDS011;10197;54.282;10.078;2023-02-18T06:58:25;8.93;;;2.88;;
20073;SDS011;10197;54.282;10.078;2023-02-18T07:00:53;5.38;;;2.38;;
20073;SDS011;10197;54.282;10.078;2023-02-18T07:03:21;6.13;;;2.00;;
20073;SDS011;10197;54.282;10.078;2023-02-18T07:05:48;5.88;;;2.05;;
20073;SDS011;10197;54.282;10.078;2023-02-18T07:08:15;4.85;;;1.92;;
20073;SDS011;10197;54.282;10.078;2023-02-18T07:10:42;4.88;;;1.95;;
20073;SDS011;10197;54.282;10.078;2023-02-18T07:13:09;7.32;;;2.35;;
20073;SDS011;10197;54.282;10.078;2023-02-18T07:15:39;5.82;;;2.00;;
20073;SDS011;10197;54.282;10.078;2023-02-18T07:18:06;3.13;;;1.73;;
20073;SDS011;10197;54.282;10.078;2023-02-18T07:20:35;4.00;;;1.98;;
20073;SDS011;10197;54.282;10.078;2023-02-18T07:23:03;3.25;;;1.90;;
20073;SDS011;10197;54.282;10.078;2023-02-18T07:25:30;3.85;;;1.60;;
20073;SDS011;10197;54.282;10.078;2023-02-18T07:27:57;2.92;;;1.70;;
20073;SDS011;10197;54.282;10.078;2023-02-18T07:30:24;4.43;;;1.80;;
20073;SDS011;10197;54.282;10.078;2023-02-18T07:32:51;4.30;;;1.73;;
20073;SDS011;10197;54.282;10.078;2023-02-18T07:35:18;3.10;;;1.60;;
20073;SDS011;10197;54.282;10.078;2023-02-18T07:37:47;4.10;;;1.65;;
20073;SDS011;10197;54.282;10.078;2023-02-18T07:40:27;4.95;;;2.10;;
20073;SDS011;10197;54.282;10.078;2023-02-18T07:42:54;5.95;;;2.42;;
20073;SDS011;10197;54.282;10.078;2023-02-18T07:45:25;4.15;;;2.00;;
20073;SDS011;10197;54.282;10.078;2023-02-18T07:47:52;3.20;;;2.05;;
20073;SDS011;10197;54.282;10.078;2023-02-18T07:50:19;4.85;;;1.98;;
20073;SDS011;10197;54.282;10.078;2023-02-18T07:52:47;4.88;;;2.85;;
20073;SDS011;10197;54.282;10.078;2023-02-18T07:55:14;7.18;;;2.10;;
20073;SDS011;10197;54.282;10.078;2023-02-18T07:57:41;6.32;;;2.88;;
20073;SDS011;10197;54.282;10.078;2023-02-18T08:00:22;8.63;;;2.40;;
20073;SDS011;10197;54.282;10.078;2023-02-18T08:02:49;6.47;;;2.10;;
20073;SDS011;10197;54.282;10.078;2023-02-18T08:05:17;5.88;;;1.90;;
20073;SDS011;10197;54.282;10.078;2023-02-18T08:07:44;7.50;;;2.20;;
20073;SDS011;10197;54.282;10.078;2023-02-18T08:10:12;6.07;;;2.30;;
20073;SDS011;10197;54.282;10.078;2023-02-18T08:12:39;10.95;;;4.32;;
20073;SDS011;10197;54.282;10.078;2023-02-18T08:15:06;6.32;;;2.15;;
20073;SDS011;10197;54.282;10.078;2023-02-18T08:17:33;7.65;;;2.85;;
20073;SDS011;10197;54.282;10.078;2023-02-18T08:20:00;6.40;;;2.03;;
20073;SDS011;10197;54.282;10.078;2023-02-18T08:22:27;4.38;;;1.90;;
20073;SDS011;10197;54.282;10.078;2023-02-18T08:24:54;9.02;;;2.50;;
20073;SDS011;10197;54.282;10.078;2023-02-18T08:27:22;7.53;;;2.08;;
20073;SDS011;10197;54.282;10.078;2023-02-18T08:29:50;7.50;;;2.30;;
20073;SDS011;10197;54.282;10.078;2023-02-18T08:32:17;8.00;;;2.85;;
20073;SDS011;10197;54.282;10.078;2023-02-18T08:34:43;4.75;;;1.90;;
20073;SDS011;10197;54.282;10.078;2023-02-18T08:37:10;8.63;;;2.30;;
20073;SDS011;10197;54.282;10.078;2023-02-18T08:39:38;4.63;;;2.40;;
20073;SDS011;10197;54.282;10.078;2023-02-18T08:42:05;9.40;;;2.85;;
20073;SDS011;10197;54.282;10.078;2023-02-18T08:44:33;5.53;;;2.20;;
20073;SDS011;10197;54.282;10.078;2023-02-18T08:47:00;13.15;;;3.70;;
20073;SDS011;10197;54.282;10.078;2023-02-18T08:49:27;7.30;;;2.15;;
20073;SDS011;10197;54.282;10.078;2023-02-18T08:51:54;7.10;;;2.80;;
20073;SDS011;10197;54.282;10.078;2023-02-18T08:54:21;5.35;;;2.22;;
20073;SDS011;10197;54.282;10.078;2023-02-18T08:56:47;7.03;;;2.50;;
20073;SDS011;10197;54.282;10.078;2023-02-18T08:59:14;12.45;;;4.10;;
20073;SDS011;10197;54.282;10.078;2023-02-18T09:01:43;39.72;;;12.43;;
20073;SDS011;10197;54.282;10.078;2023-02-18T09:04:11;14.10;;;6.75;;
20073;SDS011;10197;54.282;10.078;2023-02-18T09:06:37;27.48;;;10.65;;
20073;SDS011;10197;54.282;10.078;2023-02-18T09:09:05;9.73;;;5.78;;
20073;SDS011;10197;54.282;10.078;2023-02-18T09:11:32;10.07;;;4.38;;
20073;SDS011;10197;54.282;10.078;2023-02-18T09:13:58;18.25;;;7.55;;
20073;SDS011;10197;54.282;10.078;2023-02-18T09:16:26;12.02;;;5.38;;
20073;SDS011;10197;54.282;10.078;2023-02-18T09:18:55;36.95;;;11.77;;
20073;SDS011;10197;54.282;10.078;2023-02-18T09:21:23;41.15;;;14.13;;
20073;SDS011;10197;54.282;10.078;2023-02-18T09:23:50;20.88;;;7.70;;
20073;SDS011;10197;54.282;10.078;2023-02-18T09:26:18;42.67;;;15.70;;
20073;SDS011;10197;54.282;10.078;2023-02-18T09:28:47;22.60;;;8.75;;
20073;SDS011;10197;54.282;10.078;2023-02-18T09:31:16;8.73;;;4.20;;
20073;SDS011;10197;54.282;10.078;2023-02-18T09:33:46;9.77;;;4.22;;
20073;SDS011;10197;54.282;10.078;2023-02-18T09:36:16;5.57;;;3.50;;
20073;SDS011;10197;54.282;10.078;2023-02-18T09:38:43;6.32;;;3.42;;
20073;SDS011;10197;54.282;10.078;2023-02-18T09:41:13;3.83;;;1.70;;
20073;SDS011;10197;54.282;10.078;2023-02-18T09:43:48;8.07;;;3.22;;
20073;SDS011;10197;54.282;10.078;2023-02-18T09:46:18;4.50;;;2.85;;
20073;SDS011;10197;54.282;10.078;2023-02-18T09:48:47;11.00;;;6.28;;
20073;SDS011;10197;54.282;10.078;2023-02-18T09:51:16;14.05;;;12.65;;
20073;SDS011;10197;54.282;10.078;2023-02-18T09:53:43;21.08;;;18.88;;
20073;SDS011;10197;54.282;10.078;2023-02-18T09:56:12;9.45;;;8.65;;
20073;SDS011;10197;54.282;10.078;2023-02-18T09:58:41;3.80;;;3.50;;
20073;SDS011;10197;54.282;10.078;2023-02-18T10:01:10;5.10;;;2.88;;
20073;SDS011;10197;54.282;10.078;2023-02-18T10:03:41;2.15;;;1.80;;
20073;SDS011;10197;54.282;10.078;2023-02-18T10:06:09;2.97;;;1.60;;
20073;SDS011;10197;54.282;10.078;2023-02-18T10:08:41;2.08;;;1.58;;
20073;SDS011;10197;54.282;10.078;2023-02-18T10:11:09;1.60;;;1.50;;
20073;SDS011;10197;54.282;10.078;2023-02-18T10:13:41;2.60;;;1.60;;
20073;SDS011;10197;54.282;10.078;2023-02-18T10:16:12;2.78;;;1.52;;
20073;SDS011;10197;54.282;10.078;2023-02-18T10:18:42;2.40;;;1.50;;
20073;SDS011;10197;54.282;10.078;2023-02-18T10:21:14;2.55;;;1.45;;
20073;SDS011;10197;54.282;10.078;2023-02-18T10:23:45;1.63;;;1.30;;
20073;SDS011;10197;54.282;10.078;2023-02-18T10:26:17;1.50;;;1.40;;
20073;SDS011;10197;54.282;10.078;2023-02-18T10:28:44;3.67;;;2.90;;
20073;SDS011;10197;54.282;10.078;2023-02-18T10:31:13;3.72;;;2.40;;
20073;SDS011;10197;54.282;10.078;2023-02-18T10:33:44;2.83;;;1.70;;
20073;SDS011;10197;54.282;10.078;2023-02-18T10:36:20;3.30;;;1.50;;
20073;SDS011;10197;54.282;10.078;2023-02-18T10:41:48;1.80;;;1.30;;
20073;SDS011;10197;54.282;10.078;2023-02-18T10:44:21;1.48;;;1.27;;
20073;SDS011;10197;54.282;10.078;2023-02-18T10:46:58;3.17;;;1.42;;
20073;SDS011;10197;54.282;10.078;2023-02-18T10:49:33;1.30;;;1.20;;
20073;SDS011;10197;54.282;10.078;2023-02-18T10:52:09;1.20;;;1.10;;
20073;SDS011;10197;54.282;10.078;2023-02-18T10:54:51;1.67;;;1.20;;
20073;SDS011;10197;54.282;10.078;2023-02-18T10:57:19;1.27;;;1.15;;
20073;SDS011;10197;54.282;10.078;2023-02-18T10:59:53;1.23;;;1.13;;
20073;SDS011;10197;54.282;10.078;2023-02-18T11:02:23;0.90;;;0.90;;
20073;SDS011;10197;54.282;10.078;2023-02-18T11:04:51;1.30;;;1.08;;
20073;SDS011;10197;54.282;10.078;2023-02-18T11:07:20;1.10;;;1.00;;
20073;SDS011;10197;54.282;10.078;2023-02-18T11:09:51;1.75;;;1.20;;
20073;SDS011;10197;54.282;10.078;2023-02-18T11:12:19;1.90;;;1.30;;
20073;SDS011;10197;54.282;10.078;2023-02-18T11:14:49;2.53;;;1.40;;
20073;SDS011;10197;54.282;10.078;2023-02-18T11:17:29;1.40;;;1.30;;
20073;SDS011;10197;54.282;10.078;2023-02-18T11:19:58;1.48;;;1.20;;
20073;SDS011;10197;54.282;10.078;2023-02-18T11:22:27;1.48;;;1.38;;
20073;SDS011;10197;54.282;10.078;2023-02-18T11:24:58;1.52;;;1.40;;
20073;SDS011;10197;54.282;10.078;2023-02-18T11:27:27;1.67;;;1.50;;
20073;SDS011;10197;54.282;10.078;2023-02-18T11:29:59;1.90;;;1.60;;
20073;SDS011;10197;54.282;10.078;2023-02-18T11:32:27;1.50;;;1.40;;
20073;SDS011;10197;54.282;10.078;2023-02-18T11:34:55;1.65;;;1.55;;
20073;SDS011;10197;54.282;10.078;2023-02-18T11:37:22;1.70;;;1.60;;
20073;SDS011;10197;54.282;10.078;2023-02-18T11:39:49;2.33;;;1.70;;
20073;SDS011;10197;54.282;10.078;2023-02-18T11:42:20;2.28;;;1.40;;
20073;SDS011;10197;54.282;10.078;2023-02-18T11:44:48;2.92;;;1.70;;
20073;SDS011;10197;54.282;10.078;2023-02-18T11:47:25;1.98;;;1.88;;
20073;SDS011;10197;54.282;10.078;2023-02-18T11:50:00;2.08;;;1.80;;
20073;SDS011;10197;54.282;10.078;2023-02-18T11:52:39;2.35;;;1.75;;
20073;SDS011;10197;54.282;10.078;2023-02-18T11:55:10;3.30;;;2.20;;
20073;SDS011;10197;54.282;10.078;2023-02-18T11:57:42;1.83;;;1.60;;
20073;SDS011;10197;54.282;10.078;2023-02-18T12:00:14;2.67;;;1.73;;
20073;SDS011;10197;54.282;10.078;2023-02-18T12:02:45;2.00;;;1.80;;
20073;SDS011;10197;54.282;10.078;2023-02-18T12:05:13;2.17;;;1.40;;
20073;SDS011;10197;54.282;10.078;2023-02-18T12:07:45;1.40;;;1.30;;
20073;SDS011;10197;54.282;10.078;2023-02-18T12:12:44;1.50;;;1.20;;
20073;SDS011;10197;54.282;10.078;2023-02-18T12:15:13;1.20;;;1.20;;
20073;SDS011;10197;54.282;10.078;2023-02-18T12:17:49;1.55;;;1.20;;
20073;SDS011;10197;54.282;10.078;2023-02-18T12:20:39;1.20;;;1.10;;
20073;SDS011;10197;54.282;10.078;2023-02-18T12:23:13;1.58;;;1.48;;
20073;SDS011;10197;54.282;10.078;2023-02-18T12:25:46;1.83;;;1.60;;
20073;SDS011;10197;54.282;10.078;2023-02-18T12:28:22;1.67;;;1.50;;
20073;SDS011;10197;54.282;10.078;2023-02-18T12:31:06;1.40;;;1.30;;
20073;SDS011;10197;54.282;10.078;2023-02-18T12:33:41;1.88;;;1.30;;
20073;SDS011;10197;54.282;10.078;2023-02-18T12:36:16;2.20;;;1.50;;
20073;SDS011;10197;54.282;10.078;2023-02-18T12:38:58;1.38;;;1.30;;
20073;SDS011;10197;54.282;10.078;2023-02-18T12:41:31;1.58;;;1.48;;
20073;SDS011;10197;54.282;10.078;2023-02-18T12:44:12;1.40;;;1.30;;
20073;SDS011;10197;54.282;10.078;2023-02-18T12:46:52;1.58;;;1.48;;
20073;SDS011;10197;54.282;10.078;2023-02-18T12:49:35;1.40;;;1.30;;
20073;SDS011;10197;54.282;10.078;2023-02-18T12:52:11;1.98;;;1.40;;
20073;SDS011;10197;54.282;10.078;2023-02-18T12:54:47;3.47;;;1.75;;
20073;SDS011;10197;54.282;10.078;2023-02-18T12:57:31;3.17;;;1.75;;
20073;SDS011;10197;54.282;10.078;2023-02-18T13:03:10;2.00;;;1.60;;
20073;SDS011;10197;54.282;10.078;2023-02-18T13:05:51;2.33;;;1.90;;
20073;SDS011;10197;54.282;10.078;2023-02-18T13:08:29;3.13;;;1.63;;
20073;SDS011;10197;54.282;10.078;2023-02-18T13:11:09;2.67;;;1.70;;
20073;SDS011;10197;54.282;10.078;2023-02-18T13:13:41;1.65;;;1.55;;
20073;SDS011;10197;54.282;10.078;2023-02-18T13:16:16;1.80;;;1.55;;
20073;SDS011;10197;54.282;10.078;2023-02-18T13:18:46;3.03;;;1.40;;
20073;SDS011;10197;54.282;10.078;2023-02-18T13:21:19;3.42;;;1.38;;
20073;SDS011;10197;54.282;10.078;2023-02-18T13:23:47;2.50;;;2.30;;
20073;SDS011;10197;54.282;10.078;2023-02-18T13:26:18;1.65;;;1.55;;
20073;SDS011;10197;54.282;10.078;2023-02-18T13:28:47;3.03;;;1.70;;
20073;SDS011;10197;54.282;10.078;2023-02-18T13:31:25;1.15;;;1.13;;
20073;SDS011;10197;54.282;10.078;2023-02-18T13:33:59;1.52;;;1.38;;
20073;SDS011;10197;54.282;10.078;2023-02-18T13:36:35;1.50;;;1.40;;
20073;SDS011;10197;54.282;10.078;2023-02-18T13:39:11;1.50;;;1.40;;
20073;SDS011;10197;54.282;10.078;2023-02-18T13:41:44;1.67;;;1.58;;
20073;SDS011;10197;54.282;10.078;2023-02-18T13:47:08;1.70;;;1.20;;
20073;SDS011;10197;54.282;10.078;2023-02-18T13:49:36;1.30;;;1.20;;
20073;SDS011;10197;54.282;10.078;2023-02-18T13:52:04;2.15;;;1.55;;
20073;SDS011;10197;54.282;10.078;2023-02-18T13:54:31;1.20;;;1.10;;
20073;SDS011;10197;54.282;10.078;2023-02-18T13:57:00;1.10;;;1.10;;
20073;SDS011;10197;54.282;10.078;2023-02-18T13:59:31;1.30;;;1.20;;
20073;SDS011;10197;54.282;10.078;2023-02-18T14:02:21;1.45;;;1.33;;
20073;SDS011;10197;54.282;10.078;2023-02-18T14:04:55;2.22;;;1.80;;
20073;SDS011;10197;54.282;10.078;2023-02-18T14:07:36;1.88;;;1.60;;
20073;SDS011;10197;54.282;10.078;2023-02-18T14:10:24;6.63;;;4.30;;
20073;SDS011;10197;54.282;10.078;2023-02-18T14:13:00;5.82;;;3.08;;
20073;SDS011;10197;54.282;10.078;2023-02-18T14:15:47;5.47;;;2.42;;
20073;SDS011;10197;54.282;10.078;2023-02-18T14:18:29;3.28;;;1.60;;
20073;SDS011;10197;54.282;10.078;2023-02-18T14:21:19;2.28;;;2.00;;
20073;SDS011;10197;54.282;10.078;2023-02-18T14:23:58;1.27;;;1.20;;
20073;SDS011;10197;54.282;10.078;2023-02-18T14:26:33;2.05;;;1.85;;
20073;SDS011;10197;54.282;10.078;2023-02-18T14:29:13;2.20;;;2.00;;
20073;SDS011;10197;54.282;10.078;2023-02-18T14:31:47;3.00;;;2.60;;
20073;SDS011;10197;54.282;10.078;2023-02-18T14:34:37;2.25;;;1.90;;
20073;SDS011;10197;54.282;10.078;2023-02-18T14:37:19;2.13;;;1.60;;
20073;SDS011;10197;54.282;10.078;2023-02-18T14:39:57;1.85;;;1.45;;
20073;SDS011;10197;54.282;10.078;2023-02-18T14:42:31;1.50;;;1.40;;
20073;SDS011;10197;54.282;10.078;2023-02-18T14:45:04;1.92;;;1.80;;
20073;SDS011;10197;54.282;10.078;2023-02-18T14:47:39;4.18;;;2.60;;
20073;SDS011;10197;54.282;10.078;2023-02-18T14:50:15;2.83;;;2.13;;
20073;SDS011;10197;54.282;10.078;2023-02-18T14:52:44;1.70;;;1.60;;
20073;SDS011;10197;54.282;10.078;2023-02-18T14:55:15;3.00;;;1.55;;
20073;SDS011;10197;54.282;10.078;2023-02-18T14:57:45;1.42;;;1.33;;
20073;SDS011;10197;54.282;10.078;2023-02-18T15:00:14;2.40;;;1.88;;
20073;SDS011;10197;54.282;10.078;2023-02-18T15:02:42;2.05;;;1.95;;
20073;SDS011;10197;54.282;10.078;2023-02-18T15:05:15;2.00;;;1.90;;
20073;SDS011;10197;54.282;10.078;2023-02-18T15:07:53;2.92;;;1.60;;
20073;SDS011;10197;54.282;10.078;2023-02-18T15:10:24;1.63;;;1.50;;